Time;durP1;ratioP1;P1;durP2;ratioP2;P2;SDS_P1;SDS_P2;PMS_P1;PMS_P2;Temp;Humidity;BMP_temperature;BMP_pressure;BME280_temperature;BME280_humidity;BME280_pressure;Samples;Min_cycle;Max_cycle;Signal;HPM_P1;HPM_P2
2020/12/31 00:02:24;;;;;;;77.40;39.17;;;;;;;;;;5061129;28;20182;-80
2020/12/31 00:04:49;;;;;;;77.20;41.33;;;;;;;;;;5052312;28;20615;-80
2020/12/31 00:07:15;;;;;;;84.57;41.80;;;;;;;;;;5051325;28;20333;-80
2020/12/31 00:09:40;;;;;;;73.33;39.50;;;;;;;;;;5052350;28;20202;-81
2020/12/31 00:12:06;;;;;;;65.47;34.10;;;;;;;;;;5052068;28;20294;-80
2020/12/31 00:14:31;;;;;;;74.17;35.30;;;;;;;;;;5051860;28;20252;-80
2020/12/31 00:16:57;;;;;;;65.60;33.67;;;;;;;;;;5034287;28;20208;-80
2020/12/31 00:19:22;;;;;;;54.93;31.80;;;;;;;;;;5051847;28;20172;-80
2020/12/31 00:21:48;;;;;;;54.53;31.23;;;;;;;;;;5051813;28;20255;-80
2020/12/31 00:24:13;;;;;;;54.10;31.07;;;;;;;;;;5051479;28;20611;-80
2020/12/31 00:26:38;;;;;;;56.27;31.57;;;;;;;;;;5052455;28;20207;-80
2020/12/31 00:29:04;;;;;;;53.70;31.50;;;;;;;;;;5051677;28;20222;-80
2020/12/31 00:31:29;;;;;;;59.27;33.30;;;;;;;;;;5048109;28;20252;-80
2020/12/31 00:33:54;;;;;;;63.13;33.90;;;;;;;;;;5071520;28;20205;-80
2020/12/31 00:36:20;;;;;;;53.80;31.20;;;;;;;;;;5071527;28;20617;-80
2020/12/31 00:38:45;;;;;;;56.00;31.50;;;;;;;;;;5071899;28;20175;-80
2020/12/31 00:41:10;;;;;;;58.40;32.53;;;;;;;;;;5071715;28;20167;-80
2020/12/31 00:43:36;;;;;;;62.30;34.13;;;;;;;;;;5071696;28;20167;-80
2020/12/31 00:46:01;;;;;;;55.07;32.03;;;;;;;;;;5071395;28;20171;-80
2020/12/31 00:48:26;;;;;;;55.03;31.27;;;;;;;;;;5071326;28;20213;-80
2020/12/31 00:50:52;;;;;;;56.33;32.87;;;;;;;;;;5071317;28;20167;-80
2020/12/31 00:53:17;;;;;;;53.80;31.13;;;;;;;;;;5071678;28;20300;-80
2020/12/31 00:55:42;;;;;;;54.77;31.20;;;;;;;;;;5071833;28;20248;-80
2020/12/31 00:58:08;;;;;;;49.63;28.53;;;;;;;;;;5071584;28;20178;-80
2020/12/31 01:00:34;;;;;;;48.90;28.27;;;;;;;;;;5071306;28;20167;-80
2020/12/31 01:02:59;;;;;;;47.07;27.10;;;;;;;;;;5071064;28;20562;-80
2020/12/31 01:05:25;;;;;;;49.73;28.67;;;;;;;;;;5071590;28;20297;-80
2020/12/31 01:07:51;;;;;;;52.70;31.33;;;;;;;;;;5070994;28;20207;-80
2020/12/31 01:10:17;;;;;;;48.60;27.50;;;;;;;;;;5071168;28;20748;-80
2020/12/31 01:12:42;;;;;;;44.73;27.07;;;;;;;;;;5071935;28;20257;-79
2020/12/31 01:15:08;;;;;;;45.23;26.83;;;;;;;;;;5071766;28;20580;-79
2020/12/31 01:17:33;;;;;;;42.43;24.13;;;;;;;;;;5071024;28;20174;-80
2020/12/31 01:19:58;;;;;;;40.57;23.43;;;;;;;;;;5071082;28;20171;-79
2020/12/31 01:22:23;;;;;;;42.27;24.77;;;;;;;;;;5071232;28;20189;-80
2020/12/31 01:24:51;;;;;;;41.17;24.17;;;;;;;;;;5071038;28;20171;-80
2020/12/31 01:27:16;;;;;;;46.13;25.17;;;;;;;;;;5071421;28;20278;-80
2020/12/31 01:29:41;;;;;;;37.07;23.63;;;;;;;;;;5071544;28;20258;-80
2020/12/31 01:32:07;;;;;;;40.87;23.20;;;;;;;;;;5051391;28;20172;-80
2020/12/31 01:34:33;;;;;;;39.07;23.63;;;;;;;;;;5051438;28;20167;-80
2020/12/31 01:36:58;;;;;;;41.33;23.40;;;;;;;;;;5055149;28;20183;-80
2020/12/31 01:39:23;;;;;;;41.17;24.63;;;;;;;;;;5054786;28;20164;-80
2020/12/31 01:41:49;;;;;;;42.20;24.80;;;;;;;;;;5054758;28;20172;-80
2020/12/31 01:44:15;;;;;;;42.67;22.63;;;;;;;;;;5055292;28;20170;-80
2020/12/31 01:46:43;;;;;;;34.10;21.13;;;;;;;;;;5054640;28;20231;-80
2020/12/31 01:49:09;;;;;;;37.50;21.27;;;;;;;;;;5054993;28;20174;-80
2020/12/31 01:51:35;;;;;;;36.90;22.20;;;;;;;;;;5054899;28;20164;-80
2020/12/31 01:54:00;;;;;;;35.97;21.80;;;;;;;;;;5055047;28;20254;-80
2020/12/31 01:56:28;;;;;;;33.67;20.60;;;;;;;;;;5054698;28;20172;-80
2020/12/31 01:58:53;;;;;;;33.83;19.73;;;;;;;;;;5054791;28;20182;-81
2020/12/31 02:01:19;;;;;;;32.47;19.87;;;;;;;;;;5055038;28;20521;-80
2020/12/31 02:03:45;;;;;;;31.13;19.23;;;;;;;;;;5054668;28;20777;-79
2020/12/31 02:06:10;;;;;;;34.40;20.90;;;;;;;;;;5036576;28;20258;-80
2020/12/31 02:08:35;;;;;;;33.03;20.83;;;;;;;;;;5054379;28;20187;-80
2020/12/31 02:11:01;;;;;;;33.47;21.07;;;;;;;;;;5054855;28;20568;-80
2020/12/31 02:13:26;;;;;;;33.27;19.50;;;;;;;;;;5054311;28;20511;-80
2020/12/31 02:15:51;;;;;;;34.03;20.53;;;;;;;;;;5054415;28;20259;-80
2020/12/31 02:18:17;;;;;;;32.63;20.63;;;;;;;;;;5053972;28;20188;-80
2020/12/31 02:20:42;;;;;;;34.07;20.90;;;;;;;;;;5054140;28;20172;-80
2020/12/31 02:23:07;;;;;;;30.37;19.00;;;;;;;;;;5054264;28;20172;-80
2020/12/31 02:25:33;;;;;;;31.63;19.40;;;;;;;;;;5054225;28;20243;-80
2020/12/31 02:27:58;;;;;;;30.97;19.50;;;;;;;;;;5054135;28;20409;-80
2020/12/31 02:30:24;;;;;;;29.33;20.03;;;;;;;;;;5053852;28;20209;-80
2020/12/31 02:32:49;;;;;;;33.43;19.87;;;;;;;;;;5054044;28;20262;-80
2020/12/31 02:35:14;;;;;;;37.47;21.33;;;;;;;;;;5059090;28;20187;-80
2020/12/31 02:37:40;;;;;;;35.30;20.93;;;;;;;;;;5068864;28;20179;-80
2020/12/31 02:40:05;;;;;;;30.40;18.47;;;;;;;;;;5056254;28;20182;-80
2020/12/31 02:42:30;;;;;;;33.33;19.33;;;;;;;;;;5055851;28;20179;-80
2020/12/31 02:44:56;;;;;;;32.13;18.20;;;;;;;;;;5073552;28;20171;-80
2020/12/31 02:47:21;;;;;;;32.73;19.50;;;;;;;;;;5073303;28;20218;-80
2020/12/31 02:49:46;;;;;;;32.70;20.90;;;;;;;;;;5073595;28;20224;-80
2020/12/31 02:52:12;;;;;;;32.20;20.53;;;;;;;;;;5073439;28;20179;-80
2020/12/31 02:54:37;;;;;;;35.33;22.67;;;;;;;;;;5073776;28;20172;-80
2020/12/31 02:57:02;;;;;;;37.83;22.00;;;;;;;;;;5073951;28;20179;-80
2020/12/31 02:59:28;;;;;;;34.93;22.17;;;;;;;;;;5073930;28;20209;-80
2020/12/31 03:01:53;;;;;;;36.13;22.70;;;;;;;;;;5074087;28;20225;-80
2020/12/31 03:04:19;;;;;;;39.53;24.07;;;;;;;;;;5074412;28;20280;-80
2020/12/31 03:06:44;;;;;;;39.00;23.33;;;;;;;;;;5074450;28;20203;-80
2020/12/31 03:09:09;;;;;;;36.07;21.83;;;;;;;;;;5074063;28;20190;-80
2020/12/31 03:11:35;;;;;;;32.67;21.00;;;;;;;;;;5074361;28;20175;-80
2020/12/31 03:14:00;;;;;;;31.13;18.87;;;;;;;;;;5074077;28;20218;-80
2020/12/31 03:16:25;;;;;;;28.90;18.83;;;;;;;;;;5074226;28;20171;-81
2020/12/31 03:18:51;;;;;;;27.83;17.30;;;;;;;;;;5074424;28;20654;-80
2020/12/31 03:21:16;;;;;;;28.50;17.97;;;;;;;;;;5073903;28;20254;-80
2020/12/31 03:23:42;;;;;;;27.80;18.17;;;;;;;;;;5073833;28;20183;-80
2020/12/31 03:26:07;;;;;;;25.93;17.30;;;;;;;;;;5074439;28;20176;-80
2020/12/31 03:28:32;;;;;;;29.00;17.83;;;;;;;;;;5074037;28;20234;-80
2020/12/31 03:30:58;;;;;;;26.73;17.60;;;;;;;;;;5074291;28;20203;-81
2020/12/31 03:33:23;;;;;;;26.57;17.20;;;;;;;;;;5074261;28;20175;-80
2020/12/31 03:35:49;;;;;;;29.40;17.63;;;;;;;;;;5073859;28;20175;-80
2020/12/31 03:38:15;;;;;;;27.03;17.00;;;;;;;;;;5074066;28;20502;-80
2020/12/31 03:40:41;;;;;;;29.20;18.43;;;;;;;;;;5073680;28;20206;-80
2020/12/31 03:43:07;;;;;;;29.90;18.90;;;;;;;;;;5073784;28;20209;-80
2020/12/31 03:45:33;;;;;;;27.60;17.10;;;;;;;;;;5073748;28;20175;-80
2020/12/31 03:47:58;;;;;;;30.17;19.90;;;;;;;;;;5073618;28;20203;-82
2020/12/31 03:50:24;;;;;;;29.23;18.63;;;;;;;;;;5073602;28;20241;-80
2020/12/31 03:52:49;;;;;;;29.57;19.17;;;;;;;;;;5055886;28;20187;-80
2020/12/31 03:55:15;;;;;;;27.37;16.87;;;;;;;;;;5073170;28;20167;-80
2020/12/31 03:57:40;;;;;;;27.10;17.30;;;;;;;;;;5072684;28;20171;-80
2020/12/31 04:00:06;;;;;;;25.93;16.53;;;;;;;;;;5073395;28;20254;-80
2020/12/31 04:02:31;;;;;;;26.97;17.37;;;;;;;;;;5072918;28;20171;-80
2020/12/31 04:04:57;;;;;;;26.40;17.50;;;;;;;;;;5073676;28;20213;-79
2020/12/31 04:07:22;;;;;;;32.93;21.57;;;;;;;;;;5073311;28;20657;-80
2020/12/31 04:09:48;;;;;;;32.90;20.57;;;;;;;;;;5055326;28;20749;-79
2020/12/31 04:12:13;;;;;;;34.10;22.10;;;;;;;;;;5073257;28;20178;-79
2020/12/31 04:14:38;;;;;;;32.23;19.83;;;;;;;;;;5073168;28;20173;-79
2020/12/31 04:17:04;;;;;;;28.17;18.03;;;;;;;;;;5072808;28;20182;-80
2020/12/31 04:19:29;;;;;;;28.47;18.50;;;;;;;;;;5072974;28;20202;-80
2020/12/31 04:21:54;;;;;;;29.03;17.47;;;;;;;;;;5072806;28;20203;-80
2020/12/31 04:24:20;;;;;;;28.97;17.47;;;;;;;;;;5072643;28;20167;-80
2020/12/31 04:26:48;;;;;;;25.50;16.83;;;;;;;;;;5072903;28;20542;-80
2020/12/31 04:29:14;;;;;;;31.17;20.10;;;;;;;;;;5072663;28;20191;-80
2020/12/31 04:31:39;;;;;;;39.30;27.17;;;;;;;;;;5072482;28;20207;-80
2020/12/31 04:34:04;;;;;;;37.10;24.43;;;;;;;;;;5073217;28;20164;-81
2020/12/31 04:36:29;;;;;;;29.47;19.83;;;;;;;;;;5072848;28;20167;-80
2020/12/31 04:38:55;;;;;;;27.10;16.63;;;;;;;;;;5072534;28;20178;-80
2020/12/31 04:41:20;;;;;;;25.23;17.13;;;;;;;;;;5072537;28;20556;-79
2020/12/31 04:43:46;;;;;;;24.90;16.77;;;;;;;;;;5072337;28;20640;-79
2020/12/31 04:46:14;;;;;;;22.43;15.83;;;;;;;;;;5072341;28;20178;-80
2020/12/31 04:48:40;;;;;;;26.57;16.37;;;;;;;;;;5072287;28;20646;-79
2020/12/31 04:51:06;;;;;;;25.83;18.00;;;;;;;;;;5054571;28;20622;-80
2020/12/31 04:53:32;;;;;;;30.73;18.53;;;;;;;;;;5072806;28;20174;-79
2020/12/31 04:56:00;;;;;;;23.10;15.77;;;;;;;;;;5072421;28;20676;-79
2020/12/31 04:58:25;;;;;;;23.33;15.63;;;;;;;;;;5054635;28;20646;-79
2020/12/31 05:00:51;;;;;;;22.70;15.63;;;;;;;;;;5072590;28;20262;-79
2020/12/31 05:03:16;;;;;;;21.73;15.23;;;;;;;;;;5072668;28;20268;-79
2020/12/31 05:05:44;;;;;;;22.30;14.97;;;;;;;;;;5072246;28;20171;-79
2020/12/31 05:08:09;;;;;;;22.87;15.77;;;;;;;;;;5072303;28;20215;-79
2020/12/31 05:10:34;;;;;;;22.73;16.00;;;;;;;;;;5079039;28;20193;-81
2020/12/31 05:13:05;;;;;;;22.40;15.33;;;;;;;;;;5079018;28;20220;-80
2020/12/31 05:15:36;;;;;;;27.63;17.73;;;;;;;;;;5079587;28;20251;-79
2020/12/31 05:18:20;;;;;;;21.30;15.00;;;;;;;;;;5079290;28;20171;-79
2020/12/31 05:20:47;;;;;;;27.43;17.77;;;;;;;;;;5079064;28;20236;-79
2020/12/31 05:23:18;;;;;;;24.33;16.83;;;;;;;;;;5079002;28;20631;-79
2020/12/31 05:25:43;;;;;;;25.57;18.00;;;;;;;;;;5078638;28;20185;-80
2020/12/31 05:28:24;;;;;;;25.93;18.70;;;;;;;;;;5078643;28;20198;-80
2020/12/31 05:30:50;;;;;;;25.80;16.83;;;;;;;;;;5078590;28;20198;-80
2020/12/31 05:33:35;;;;;;;24.03;15.93;;;;;;;;;;5078804;28;20167;-80
2020/12/31 05:36:20;;;;;;;23.47;15.93;;;;;;;;;;5078969;28;20170;-80
2020/12/31 05:38:46;;;;;;;34.10;23.63;;;;;;;;;;5078524;28;20637;-79
2020/12/31 05:41:11;;;;;;;32.43;23.63;;;;;;;;;;5078817;28;20175;-80
2020/12/31 05:43:37;;;;;;;31.97;21.83;;;;;;;;;;5079130;28;20198;-80
2020/12/31 05:46:06;;;;;;;32.70;21.00;;;;;;;;;;5078883;28;20669;-79
2020/12/31 05:48:31;;;;;;;41.13;22.67;;;;;;;;;;5078500;28;20225;-79
2020/12/31 05:50:57;;;;;;;52.57;26.37;;;;;;;;;;5078542;28;20584;-79
2020/12/31 05:53:23;;;;;;;34.80;22.00;;;;;;;;;;5078524;28;20656;-80
2020/12/31 05:55:53;;;;;;;34.43;21.00;;;;;;;;;;5078703;28;20652;-80
2020/12/31 05:58:21;;;;;;;34.87;21.27;;;;;;;;;;5078391;28;20171;-80
2020/12/31 06:00:52;;;;;;;35.80;21.30;;;;;;;;;;5078360;28;20171;-80
2020/12/31 06:03:30;;;;;;;29.63;19.80;;;;;;;;;;5078752;28;20317;-80
2020/12/31 06:06:03;;;;;;;24.73;16.53;;;;;;;;;;5078753;28;20163;-80
2020/12/31 06:08:30;;;;;;;26.40;18.23;;;;;;;;;;5078481;28;20218;-80
2020/12/31 06:11:00;;;;;;;26.43;18.27;;;;;;;;;;5078635;28;20182;-80
2020/12/31 06:13:33;;;;;;;30.33;18.97;;;;;;;;;;5078534;28;20204;-80
2020/12/31 06:16:02;;;;;;;28.37;18.60;;;;;;;;;;5078900;28;20173;-79
2020/12/31 06:18:30;;;;;;;28.27;19.53;;;;;;;;;;5078097;28;20179;-79
2020/12/31 06:21:00;;;;;;;30.43;20.77;;;;;;;;;;5076142;28;20175;-80
2020/12/31 06:23:34;;;;;;;38.47;24.00;;;;;;;;;;5075279;28;20258;-79
2020/12/31 06:26:06;;;;;;;29.37;19.03;;;;;;;;;;5075021;28;20166;-79
2020/12/31 06:28:34;;;;;;;27.70;17.60;;;;;;;;;;5074929;28;20203;-79
2020/12/31 06:31:00;;;;;;;26.97;17.97;;;;;;;;;;5075409;28;20179;-80
2020/12/31 06:33:25;;;;;;;24.63;16.83;;;;;;;;;;5075069;28;20171;-80
2020/12/31 06:35:55;;;;;;;27.67;16.77;;;;;;;;;;5074703;28;20610;-79
2020/12/31 06:38:27;;;;;;;24.20;16.77;;;;;;;;;;5075072;28;20185;-80
2020/12/31 06:40:52;;;;;;;32.37;20.40;;;;;;;;;;5074900;28;20216;-80
2020/12/31 06:43:18;;;;;;;35.00;23.47;;;;;;;;;;5074841;28;20171;-79
2020/12/31 06:45:44;;;;;;;33.77;21.27;;;;;;;;;;5074661;28;20170;-80
2020/12/31 06:48:25;;;;;;;27.53;18.67;;;;;;;;;;5074780;28;20598;-79
2020/12/31 06:50:56;;;;;;;33.33;19.17;;;;;;;;;;5075021;28;20174;-79
2020/12/31 06:53:35;;;;;;;35.00;21.87;;;;;;;;;;5074698;28;20167;-79
2020/12/31 06:56:02;;;;;;;37.33;23.67;;;;;;;;;;5074596;28;20662;-79
2020/12/31 06:58:28;;;;;;;38.63;23.83;;;;;;;;;;5074587;28;20171;-80
2020/12/31 07:00:54;;;;;;;35.13;22.37;;;;;;;;;;5074369;28;20221;-79
2020/12/31 07:03:42;;;;;;;33.33;22.13;;;;;;;;;;5074231;28;20226;-79
2020/12/31 07:06:23;;;;;;;65.03;35.33;;;;;;;;;;5073949;28;20192;-79
2020/12/31 07:08:48;;;;;;;137.90;62.60;;;;;;;;;;5074332;28;20209;-79
2020/12/31 07:11:13;;;;;;;55.73;32.40;;;;;;;;;;5074665;28;20171;-80
2020/12/31 07:13:39;;;;;;;50.20;31.57;;;;;;;;;;5074117;28;20266;-80
2020/12/31 07:16:05;;;;;;;47.83;30.83;;;;;;;;;;5074150;28;20382;-80
2020/12/31 07:18:32;;;;;;;40.03;26.40;;;;;;;;;;5074051;28;20182;-80
2020/12/31 07:20:58;;;;;;;40.23;27.17;;;;;;;;;;5074217;28;20175;-80
2020/12/31 07:23:35;;;;;;;36.27;23.00;;;;;;;;;;5074185;28;20171;-80
2020/12/31 07:26:01;;;;;;;37.30;24.73;;;;;;;;;;5074150;28;20182;-80
2020/12/31 07:28:27;;;;;;;34.97;23.87;;;;;;;;;;5074054;28;20210;-79
2020/12/31 07:30:53;;;;;;;35.10;22.20;;;;;;;;;;5074247;28;20217;-79
2020/12/31 07:33:37;;;;;;;36.20;23.60;;;;;;;;;;5072485;28;20168;-80
2020/12/31 07:36:12;;;;;;;38.73;25.17;;;;;;;;;;5073975;28;20246;-80
2020/12/31 07:38:37;;;;;;;48.87;30.30;;;;;;;;;;5073869;28;20166;-79
2020/12/31 07:41:02;;;;;;;78.40;37.97;;;;;;;;;;5074083;28;20178;-80
2020/12/31 07:43:28;;;;;;;37.70;24.53;;;;;;;;;;5073371;28;20168;-80
2020/12/31 07:46:02;;;;;;;39.77;25.47;;;;;;;;;;5073893;28;20228;-80
2020/12/31 07:48:28;;;;;;;46.10;30.43;;;;;;;;;;5073599;28;20234;-80
2020/12/31 07:50:54;;;;;;;41.43;28.13;;;;;;;;;;5073551;28;20178;-80
2020/12/31 07:53:19;;;;;;;51.93;30.27;;;;;;;;;;5073796;28;20175;-80
2020/12/31 07:55:49;;;;;;;36.43;24.37;;;;;;;;;;5073433;28;20174;-79
2020/12/31 07:58:16;;;;;;;36.17;22.67;;;;;;;;;;5073423;28;20618;-79
2020/12/31 08:00:41;;;;;;;33.37;22.00;;;;;;;;;;5073067;28;20560;-79
2020/12/31 08:03:10;;;;;;;31.17;20.60;;;;;;;;;;5073103;28;20218;-79
2020/12/31 08:05:36;;;;;;;30.23;20.23;;;;;;;;;;5073282;28;20501;-79
2020/12/31 08:08:01;;;;;;;30.37;20.23;;;;;;;;;;5073133;28;20205;-79
2020/12/31 08:10:26;;;;;;;31.87;21.40;;;;;;;;;;5072871;28;20167;-80
2020/12/31 08:12:52;;;;;;;31.10;21.13;;;;;;;;;;5072813;28;20175;-80
2020/12/31 08:15:19;;;;;;;29.77;20.87;;;;;;;;;;5073360;28;20522;-80
2020/12/31 08:17:48;;;;;;;38.83;25.87;;;;;;;;;;5072889;28;20174;-80
2020/12/31 08:20:14;;;;;;;37.20;25.33;;;;;;;;;;5072986;28;20173;-80
2020/12/31 08:22:40;;;;;;;36.87;25.90;;;;;;;;;;5072674;28;20171;-79
2020/12/31 08:25:09;;;;;;;39.27;26.47;;;;;;;;;;5072924;28;20217;-80
2020/12/31 08:27:41;;;;;;;35.83;23.97;;;;;;;;;;5072860;28;20202;-80
2020/12/31 08:30:10;;;;;;;59.00;32.73;;;;;;;;;;5072542;28;20200;-80
2020/12/31 08:32:50;;;;;;;36.27;24.80;;;;;;;;;;5072526;28;20174;-80
2020/12/31 08:35:26;;;;;;;36.00;24.87;;;;;;;;;;5072516;28;20610;-80
2020/12/31 08:37:59;;;;;;;47.13;31.70;;;;;;;;;;5073025;28;20189;-81
2020/12/31 08:40:24;;;;;;;42.23;29.17;;;;;;;;;;5072421;28;20178;-80
2020/12/31 08:42:53;;;;;;;29.77;21.10;;;;;;;;;;5072699;28;20174;-80
2020/12/31 08:45:29;;;;;;;30.53;20.77;;;;;;;;;;5072562;28;20224;-80
2020/12/31 08:48:10;;;;;;;32.97;23.53;;;;;;;;;;5072547;28;20199;-80
2020/12/31 08:50:35;;;;;;;37.60;24.07;;;;;;;;;;5072855;28;20167;-79
2020/12/31 08:53:02;;;;;;;43.20;32.13;;;;;;;;;;5072642;28;20177;-80
2020/12/31 08:55:27;;;;;;;39.83;27.60;;;;;;;;;;5072621;28;20220;-80
2020/12/31 08:58:09;;;;;;;38.03;27.40;;;;;;;;;;5072962;28;20171;-79
2020/12/31 09:00:36;;;;;;;42.60;29.80;;;;;;;;;;5072323;28;20170;-80
2020/12/31 09:03:01;;;;;;;36.13;24.73;;;;;;;;;;5072152;28;20231;-80
2020/12/31 09:05:26;;;;;;;38.07;27.33;;;;;;;;;;5072372;28;20520;-80
2020/12/31 09:08:00;;;;;;;34.30;24.90;;;;;;;;;;5054572;28;20706;-80
2020/12/31 09:10:25;;;;;;;38.33;26.17;;;;;;;;;;5072253;28;20159;-80
2020/12/31 09:12:50;;;;;;;55.60;35.63;;;;;;;;;;5072623;28;20190;-80
2020/12/31 09:15:17;;;;;;;47.00;31.07;;;;;;;;;;5072374;28;20171;-80
2020/12/31 09:17:43;;;;;;;35.73;23.40;;;;;;;;;;5072122;28;20641;-80
2020/12/31 09:20:16;;;;;;;40.10;28.47;;;;;;;;;;5072293;28;20167;-80
2020/12/31 09:22:41;;;;;;;49.37;32.30;;;;;;;;;;5072385;28;20189;-80
2020/12/31 09:25:10;;;;;;;70.37;45.57;;;;;;;;;;5072312;28;20171;-79
2020/12/31 09:27:36;;;;;;;65.43;42.33;;;;;;;;;;5070569;28;20198;-80
2020/12/31 09:30:02;;;;;;;36.77;24.90;;;;;;;;;;5072426;28;20173;-80
2020/12/31 09:32:28;;;;;;;41.30;29.90;;;;;;;;;;5072141;28;20199;-80
2020/12/31 09:34:53;;;;;;;43.67;28.63;;;;;;;;;;5072584;28;20216;-80
2020/12/31 09:37:18;;;;;;;47.67;30.10;;;;;;;;;;5071922;28;20205;-79
2020/12/31 09:39:44;;;;;;;42.47;27.47;;;;;;;;;;5072045;28;20614;-80
2020/12/31 09:42:09;;;;;;;35.73;24.27;;;;;;;;;;5071643;28;20167;-80
2020/12/31 09:44:35;;;;;;;33.60;21.27;;;;;;;;;;5071795;28;20175;-80
2020/12/31 09:47:00;;;;;;;50.20;34.53;;;;;;;;;;5071456;28;20199;-80
2020/12/31 09:49:26;;;;;;;129.97;61.03;;;;;;;;;;5071889;28;20175;-81
2020/12/31 09:51:51;;;;;;;150.27;69.13;;;;;;;;;;5072052;28;20163;-79
2020/12/31 09:54:16;;;;;;;64.40;36.50;;;;;;;;;;5071731;28;20621;-79
2020/12/31 09:56:42;;;;;;;71.73;50.20;;;;;;;;;;5073801;28;20285;-79
2020/12/31 09:59:07;;;;;;;34.77;25.07;;;;;;;;;;5073653;28;20203;-80
2020/12/31 10:01:35;;;;;;;53.40;33.00;;;;;;;;;;5075256;28;20265;-81
2020/12/31 10:04:00;;;;;;;37.70;26.17;;;;;;;;;;5075638;28;20617;-80
2020/12/31 10:06:26;;;;;;;29.27;21.67;;;;;;;;;;5075893;28;20257;-80
2020/12/31 10:08:51;;;;;;;39.60;27.13;;;;;;;;;;5066299;28;20260;-80
2020/12/31 10:11:17;;;;;;;53.47;35.23;;;;;;;;;;5061832;28;20179;-80
2020/12/31 10:13:42;;;;;;;57.77;40.57;;;;;;;;;;5063557;28;20175;-80
2020/12/31 10:16:08;;;;;;;53.57;35.40;;;;;;;;;;5074130;28;20191;-80
2020/12/31 10:18:33;;;;;;;43.60;28.73;;;;;;;;;;5040564;28;20278;-80
2020/12/31 10:20:58;;;;;;;51.87;36.07;;;;;;;;;;5054447;28;20226;-81
2020/12/31 10:23:24;;;;;;;63.33;41.60;;;;;;;;;;5054953;28;20238;-79
2020/12/31 10:25:49;;;;;;;161.57;91.33;;;;;;;;;;5059000;28;20179;-80
2020/12/31 10:28:15;;;;;;;34.60;23.73;;;;;;;;;;5073991;28;20206;-80
2020/12/31 10:30:40;;;;;;;45.87;29.63;;;;;;;;;;5073343;28;20679;-80
2020/12/31 10:33:06;;;;;;;29.63;19.20;;;;;;;;;;5072422;28;20210;-80
2020/12/31 10:35:31;;;;;;;30.00;20.03;;;;;;;;;;5072067;28;20253;-80
2020/12/31 10:37:56;;;;;;;30.67;21.30;;;;;;;;;;5072537;28;20275;-80
2020/12/31 10:40:21;;;;;;;31.27;21.57;;;;;;;;;;5054229;28;20538;-80
2020/12/31 10:42:47;;;;;;;42.20;27.80;;;;;;;;;;5071895;28;20302;-81
2020/12/31 10:45:12;;;;;;;50.17;30.33;;;;;;;;;;5067954;28;20737;-81
2020/12/31 10:47:37;;;;;;;38.10;25.43;;;;;;;;;;5059812;28;20207;-81
2020/12/31 10:50:03;;;;;;;35.77;23.13;;;;;;;;;;5068748;28;20181;-80
2020/12/31 10:52:28;;;;;;;78.93;48.77;;;;;;;;;;5072232;28;20183;-79
2020/12/31 10:54:53;;;;;;;53.50;33.33;;;;;;;;;;5070038;28;20167;-80
2020/12/31 10:57:19;;;;;;;40.27;26.40;;;;;;;;;;5078987;28;20190;-80
2020/12/31 10:59:44;;;;;;;40.00;25.43;;;;;;;;;;5072793;28;20186;-80
2020/12/31 11:02:09;;;;;;;55.23;35.83;;;;;;;;;;5072657;28;20310;-80
2020/12/31 11:04:35;;;;;;;33.77;21.93;;;;;;;;;;5073003;28;20222;-80
2020/12/31 11:07:00;;;;;;;32.97;21.17;;;;;;;;;;5072705;28;20210;-80
2020/12/31 11:09:25;;;;;;;77.23;45.33;;;;;;;;;;5072806;28;20843;-80
2020/12/31 11:11:51;;;;;;;56.87;36.53;;;;;;;;;;5072858;28;20551;-80
2020/12/31 11:14:16;;;;;;;69.10;48.07;;;;;;;;;;5072645;28;20178;-81
2020/12/31 11:16:47;;;;;;;60.53;35.43;;;;;;;;;;5054005;28;20182;-80
2020/12/31 11:19:12;;;;;;;58.23;37.87;;;;;;;;;;5073030;28;20480;-80
2020/12/31 11:21:37;;;;;;;87.70;49.53;;;;;;;;;;5072437;28;20174;-81
2020/12/31 11:24:02;;;;;;;51.03;32.47;;;;;;;;;;5072898;28;20186;-80
2020/12/31 11:26:33;;;;;;;53.10;32.40;;;;;;;;;;5072127;28;20174;-80
2020/12/31 11:28:59;;;;;;;44.77;25.80;;;;;;;;;;5072607;28;20712;-80
2020/12/31 11:31:25;;;;;;;45.60;24.73;;;;;;;;;;5072646;28;20204;-79
2020/12/31 11:33:51;;;;;;;47.37;27.43;;;;;;;;;;5072529;28;20253;-80
2020/12/31 11:36:16;;;;;;;43.60;24.17;;;;;;;;;;5072404;28;20171;-79
2020/12/31 11:38:41;;;;;;;44.83;25.40;;;;;;;;;;5072517;28;20183;-80
2020/12/31 11:41:07;;;;;;;45.30;24.87;;;;;;;;;;5073717;28;20622;-80
2020/12/31 11:43:33;;;;;;;69.27;39.37;;;;;;;;;;5073715;28;20199;-79
2020/12/31 11:45:59;;;;;;;48.13;27.37;;;;;;;;;;5072449;28;20534;-80
2020/12/31 11:48:25;;;;;;;44.97;25.10;;;;;;;;;;5072385;28;20206;-80
2020/12/31 11:50:52;;;;;;;41.80;24.77;;;;;;;;;;5073147;28;20174;-81
2020/12/31 11:53:18;;;;;;;42.93;25.83;;;;;;;;;;5073803;28;20217;-80
2020/12/31 11:55:43;;;;;;;44.90;24.90;;;;;;;;;;5073892;28;20164;-80
2020/12/31 11:58:09;;;;;;;35.43;21.83;;;;;;;;;;5055288;28;20934;-80
2020/12/31 12:00:34;;;;;;;35.60;22.03;;;;;;;;;;5071519;28;20619;-80
2020/12/31 12:02:59;;;;;;;35.17;21.57;;;;;;;;;;5071566;28;20326;-80
2020/12/31 12:05:24;;;;;;;53.70;28.33;;;;;;;;;;5073146;28;20250;-80
2020/12/31 12:07:50;;;;;;;76.27;34.93;;;;;;;;;;5073476;28;20202;-80
2020/12/31 12:10:15;;;;;;;44.90;26.57;;;;;;;;;;5072891;28;20260;-80
2020/12/31 12:12:41;;;;;;;44.20;24.87;;;;;;;;;;5072867;28;20258;-80
2020/12/31 12:15:06;;;;;;;36.80;21.97;;;;;;;;;;5055175;28;20179;-80
2020/12/31 12:17:31;;;;;;;39.10;23.27;;;;;;;;;;5072332;28;20294;-80
2020/12/31 12:19:57;;;;;;;47.60;26.10;;;;;;;;;;5071094;28;20179;-80
2020/12/31 12:22:22;;;;;;;64.17;32.00;;;;;;;;;;5053685;28;20182;-80
2020/12/31 12:24:47;;;;;;;54.93;29.17;;;;;;;;;;5071203;28;20259;-80
2020/12/31 12:27:13;;;;;;;40.10;23.60;;;;;;;;;;5071176;28;20190;-79
2020/12/31 12:29:38;;;;;;;35.40;22.10;;;;;;;;;;5071209;28;20167;-80
2020/12/31 12:32:08;;;;;;;39.50;23.57;;;;;;;;;;5071365;28;20193;-80
2020/12/31 12:34:33;;;;;;;38.57;23.67;;;;;;;;;;5071152;28;20212;-80
2020/12/31 12:36:58;;;;;;;46.80;25.97;;;;;;;;;;5071366;28;20841;-79
2020/12/31 12:39:24;;;;;;;45.50;23.57;;;;;;;;;;5070971;28;20171;-80
2020/12/31 12:41:49;;;;;;;34.53;21.00;;;;;;;;;;5070917;28;20178;-79
2020/12/31 12:44:14;;;;;;;46.60;24.40;;;;;;;;;;5072564;28;20217;-80
2020/12/31 12:46:40;;;;;;;45.70;23.37;;;;;;;;;;5072583;28;20171;-79
2020/12/31 12:49:05;;;;;;;39.40;23.00;;;;;;;;;;5072500;28;20254;-80
2020/12/31 12:51:31;;;;;;;46.73;27.33;;;;;;;;;;5072806;28;20170;-80
2020/12/31 12:53:56;;;;;;;40.93;24.73;;;;;;;;;;5072650;28;20167;-80
2020/12/31 12:56:22;;;;;;;53.70;30.17;;;;;;;;;;5072577;28;20613;-80
2020/12/31 12:58:47;;;;;;;55.03;29.27;;;;;;;;;;5071884;28;20202;-79
2020/12/31 13:01:15;;;;;;;49.00;27.40;;;;;;;;;;5071303;28;20199;-80
2020/12/31 13:03:41;;;;;;;51.43;30.27;;;;;;;;;;5071073;28;20708;-80
2020/12/31 13:06:09;;;;;;;78.37;38.53;;;;;;;;;;5071337;28;20171;-79
2020/12/31 13:08:34;;;;;;;63.80;34.07;;;;;;;;;;5071176;28;20228;-81
2020/12/31 13:10:59;;;;;;;52.70;29.80;;;;;;;;;;5052155;28;20566;-79
2020/12/31 13:13:25;;;;;;;38.50;24.20;;;;;;;;;;5055002;28;20172;-80
2020/12/31 13:15:50;;;;;;;39.30;24.27;;;;;;;;;;5050074;28;20168;-80
2020/12/31 13:18:15;;;;;;;45.03;25.27;;;;;;;;;;5049701;28;20547;-80
2020/12/31 13:20:41;;;;;;;55.30;31.33;;;;;;;;;;5049683;28;20604;-81
2020/12/31 13:23:07;;;;;;;47.93;29.90;;;;;;;;;;5049743;28;20167;-80
2020/12/31 13:25:33;;;;;;;45.30;28.43;;;;;;;;;;5049615;28;20530;-80
2020/12/31 13:27:59;;;;;;;44.83;27.73;;;;;;;;;;5049307;28;20654;-80
2020/12/31 13:30:24;;;;;;;56.13;32.97;;;;;;;;;;5052864;28;20194;-80
2020/12/31 13:32:49;;;;;;;46.77;29.57;;;;;;;;;;5054198;28;20225;-80
2020/12/31 13:35:15;;;;;;;48.23;28.17;;;;;;;;;;5054255;28;20190;-80
2020/12/31 13:37:40;;;;;;;45.33;25.53;;;;;;;;;;5053892;28;20221;-80
2020/12/31 13:40:06;;;;;;;43.17;25.83;;;;;;;;;;5053517;28;20175;-80
2020/12/31 13:42:32;;;;;;;55.37;34.43;;;;;;;;;;5053706;28;20243;-80
2020/12/31 13:44:59;;;;;;;58.40;38.17;;;;;;;;;;5057510;28;20641;-80
2020/12/31 13:47:25;;;;;;;53.70;32.77;;;;;;;;;;5093231;28;20206;-82
2020/12/31 13:49:50;;;;;;;52.40;30.17;;;;;;;;;;5060853;28;20547;-81
2020/12/31 13:52:15;;;;;;;51.33;28.57;;;;;;;;;;5074545;28;20202;-81
2020/12/31 13:54:41;;;;;;;53.27;29.50;;;;;;;;;;5074217;28;20175;-80
2020/12/31 13:57:06;;;;;;;54.47;29.17;;;;;;;;;;5074840;28;20610;-80
2020/12/31 13:59:32;;;;;;;46.97;27.17;;;;;;;;;;5074585;28;20171;-80
2020/12/31 14:01:57;;;;;;;48.13;27.37;;;;;;;;;;5075280;28;20177;-81
2020/12/31 14:04:25;;;;;;;45.27;26.37;;;;;;;;;;5075890;28;20225;-80
2020/12/31 14:06:51;;;;;;;47.17;28.20;;;;;;;;;;5075797;28;20168;-79
2020/12/31 14:09:16;;;;;;;50.53;28.33;;;;;;;;;;5095529;28;20201;-80
2020/12/31 14:11:42;;;;;;;45.77;27.03;;;;;;;;;;5090440;28;20252;-81
2020/12/31 14:14:07;;;;;;;52.37;28.20;;;;;;;;;;5078387;28;20171;-80